sensor_id;sensor_type;location;lat;lon;timestamp;pressure;altitude;pressure_sealevel;temperature
68911;BMP180;55953;51.650;-0.522;2022-11-15T00:00:50;99544.60;;;10.00
68911;BMP180;55953;51.650;-0.522;2022-11-15T00:03:37;99537.40;;;10.00
68911;BMP180;55953;51.650;-0.522;2022-11-15T00:06:23;99530.20;;;10.00
68911;BMP180;55953;51.650;-0.522;2022-11-15T00:09:09;99526.40;;;10.00
68911;BMP180;55953;51.650;-0.522;2022-11-15T00:11:56;99522.80;;;10.00
68911;BMP180;55953;51.650;-0.522;2022-11-15T00:14:42;99520.60;;;10.00
68911;BMP180;55953;51.650;-0.522;2022-11-15T00:17:29;99519.20;;;9.90
68911;BMP180;55953;51.650;-0.522;2022-11-15T00:20:17;99513.80;;;9.86
68911;BMP180;55953;51.650;-0.522;2022-11-15T00:23:04;99510.00;;;9.80
68911;BMP180;55953;51.650;-0.522;2022-11-15T00:25:58;99507.20;;;9.80
68911;BMP180;55953;51.650;-0.522;2022-11-15T00:28:45;99503.60;;;9.70
68911;BMP180;55953;51.650;-0.522;2022-11-15T00:31:31;99500.80;;;9.70
68911;BMP180;55953;51.650;-0.522;2022-11-15T00:34:17;99497.20;;;9.70
68911;BMP180;55953;51.650;-0.522;2022-11-15T00:37:04;99498.40;;;9.70
68911;BMP180;55953;51.650;-0.522;2022-11-15T00:39:52;99492.00;;;9.70
68911;BMP180;55953;51.650;-0.522;2022-11-15T00:42:39;99490.80;;;9.60
68911;BMP180;55953;51.650;-0.522;2022-11-15T00:45:26;99486.40;;;9.60
68911;BMP180;55953;51.650;-0.522;2022-11-15T00:48:12;99483.00;;;9.50
68911;BMP180;55953;51.650;-0.522;2022-11-15T00:50:59;99477.80;;;9.50
68911;BMP180;55953;51.650;-0.522;2022-11-15T00:53:45;99467.60;;;9.52
68911;BMP180;55953;51.650;-0.522;2022-11-15T00:56:31;99461.80;;;9.50
68911;BMP180;55953;51.650;-0.522;2022-11-15T00:59:18;99451.60;;;9.50
68911;BMP180;55953;51.650;-0.522;2022-11-15T01:02:04;99447.20;;;9.50
68911;BMP180;55953;51.650;-0.522;2022-11-15T01:04:50;99447.20;;;9.46
68911;BMP180;55953;51.650;-0.522;2022-11-15T01:07:37;99441.00;;;9.50
68911;BMP180;55953;51.650;-0.522;2022-11-15T01:10:24;99440.20;;;9.40
68911;BMP180;55953;51.650;-0.522;2022-11-15T01:13:12;99428.60;;;9.48
68911;BMP180;55953;51.650;-0.522;2022-11-15T01:15:59;99421.80;;;9.42
68911;BMP180;55953;51.650;-0.522;2022-11-15T01:18:45;99415.00;;;9.50
68911;BMP180;55953;51.650;-0.522;2022-11-15T01:21:32;99402.80;;;9.42
68911;BMP180;55953;51.650;-0.522;2022-11-15T01:24:18;99400.20;;;9.40
68911;BMP180;55953;51.650;-0.522;2022-11-15T01:27:05;99400.80;;;9.40
68911;BMP180;55953;51.650;-0.522;2022-11-15T01:29:51;99398.40;;;9.40
68911;BMP180;55953;51.650;-0.522;2022-11-15T01:32:37;99398.00;;;9.30
68911;BMP180;55953;51.650;-0.522;2022-11-15T01:35:24;99387.40;;;9.30
68911;BMP180;55953;51.650;-0.522;2022-11-15T01:38:10;99388.80;;;9.30
68911;BMP180;55953;51.650;-0.522;2022-11-15T01:40:57;99378.40;;;9.30
68911;BMP180;55953;51.650;-0.522;2022-11-15T01:43:43;99366.00;;;9.30
68911;BMP180;55953;51.650;-0.522;2022-11-15T01:46:35;99362.80;;;9.30
68911;BMP180;55953;51.650;-0.522;2022-11-15T01:49:24;99361.40;;;9.20
68911;BMP180;55953;51.650;-0.522;2022-11-15T01:52:16;99360.20;;;9.20
68911;BMP180;55953;51.650;-0.522;2022-11-15T01:55:18;99353.80;;;9.20
68911;BMP180;55953;51.650;-0.522;2022-11-15T01:58:07;99352.20;;;9.20
68911;BMP180;55953;51.650;-0.522;2022-11-15T02:00:54;99349.00;;;9.20
68911;BMP180;55953;51.650;-0.522;2022-11-15T02:03:58;99343.00;;;9.20
68911;BMP180;55953;51.650;-0.522;2022-11-15T02:06:48;99340.60;;;9.20
68911;BMP180;55953;51.650;-0.522;2022-11-15T02:09:37;99336.20;;;9.20
68911;BMP180;55953;51.650;-0.522;2022-11-15T02:12:24;99327.00;;;9.10
68911;BMP180;55953;51.650;-0.522;2022-11-15T02:15:11;99311.20;;;9.10
68911;BMP180;55953;51.650;-0.522;2022-11-15T02:18:27;99312.80;;;9.10
68911;BMP180;55953;51.650;-0.522;2022-11-15T02:21:31;99303.00;;;9.06
68911;BMP180;55953;51.650;-0.522;2022-11-15T02:30:45;99275.40;;;8.90
68911;BMP180;55953;51.650;-0.522;2022-11-15T02:36:53;99261.60;;;8.90
68911;BMP180;55953;51.650;-0.522;2022-11-15T02:43:02;99256.60;;;8.90
68911;BMP180;55953;51.650;-0.522;2022-11-15T02:49:33;99239.00;;;8.90
68911;BMP180;55953;51.650;-0.522;2022-11-15T02:52:24;99231.40;;;8.90
68911;BMP180;55953;51.650;-0.522;2022-11-15T02:55:30;99216.00;;;8.98
68911;BMP180;55953;51.650;-0.522;2022-11-15T03:05:54;99207.20;;;9.30
68911;BMP180;55953;51.650;-0.522;2022-11-15T03:09:07;99198.20;;;9.40
68911;BMP180;55953;51.650;-0.522;2022-11-15T03:15:25;99185.60;;;9.60
68911;BMP180;55953;51.650;-0.522;2022-11-15T03:18:41;99185.40;;;9.62
68911;BMP180;55953;51.650;-0.522;2022-11-15T03:21:30;99183.60;;;9.70
68911;BMP180;55953;51.650;-0.522;2022-11-15T03:24:20;99171.00;;;9.80
68911;BMP180;55953;51.650;-0.522;2022-11-15T03:27:17;99171.20;;;9.88
68911;BMP180;55953;51.650;-0.522;2022-11-15T03:30:08;99170.40;;;9.98
68911;BMP180;55953;51.650;-0.522;2022-11-15T03:32:58;99163.20;;;10.00
68911;BMP180;55953;51.650;-0.522;2022-11-15T03:35:48;99165.40;;;10.06
68911;BMP180;55953;51.650;-0.522;2022-11-15T03:38:35;99157.20;;;10.10
68911;BMP180;55953;51.650;-0.522;2022-11-15T03:41:43;99155.80;;;10.20
68911;BMP180;55953;51.650;-0.522;2022-11-15T03:45:08;99147.20;;;10.30
68911;BMP180;55953;51.650;-0.522;2022-11-15T03:48:09;99140.80;;;10.30
68911;BMP180;55953;51.650;-0.522;2022-11-15T03:50:57;99136.40;;;10.40
68911;BMP180;55953;51.650;-0.522;2022-11-15T03:53:44;99134.00;;;10.40
68911;BMP180;55953;51.650;-0.522;2022-11-15T03:56:30;99134.40;;;10.40
68911;BMP180;55953;51.650;-0.522;2022-11-15T03:59:17;99126.60;;;10.42
68911;BMP180;55953;51.650;-0.522;2022-11-15T04:02:03;99134.40;;;10.42
68911;BMP180;55953;51.650;-0.522;2022-11-15T04:04:50;99124.20;;;10.48
68911;BMP180;55953;51.650;-0.522;2022-11-15T04:07:36;99119.00;;;10.50
68911;BMP180;55953;51.650;-0.522;2022-11-15T04:10:23;99110.40;;;10.50
68911;BMP180;55953;51.650;-0.522;2022-11-15T04:13:09;99108.40;;;10.50
68911;BMP180;55953;51.650;-0.522;2022-11-15T04:15:55;99101.20;;;10.52
68911;BMP180;55953;51.650;-0.522;2022-11-15T04:18:41;99093.20;;;10.54
68911;BMP180;55953;51.650;-0.522;2022-11-15T04:21:28;99094.60;;;10.56
68911;BMP180;55953;51.650;-0.522;2022-11-15T04:24:34;99081.40;;;10.60
68911;BMP180;55953;51.650;-0.522;2022-11-15T04:27:20;99074.00;;;10.70
68911;BMP180;55953;51.650;-0.522;2022-11-15T04:30:07;99064.00;;;10.70
68911;BMP180;55953;51.650;-0.522;2022-11-15T04:32:53;99064.40;;;10.70
68911;BMP180;55953;51.650;-0.522;2022-11-15T04:35:40;99055.80;;;10.70
68911;BMP180;55953;51.650;-0.522;2022-11-15T04:38:27;99050.40;;;10.70
68911;BMP180;55953;51.650;-0.522;2022-11-15T04:41:14;99044.80;;;10.80
68911;BMP180;55953;51.650;-0.522;2022-11-15T04:44:00;99039.60;;;10.80
68911;BMP180;55953;51.650;-0.522;2022-11-15T04:46:46;99037.20;;;10.80
68911;BMP180;55953;51.650;-0.522;2022-11-15T04:49:33;99026.40;;;10.90
68911;BMP180;55953;51.650;-0.522;2022-11-15T04:52:19;99023.40;;;10.90
68911;BMP180;55953;51.650;-0.522;2022-11-15T04:55:06;99018.20;;;10.90
68911;BMP180;55953;51.650;-0.522;2022-11-15T04:58:02;99005.20;;;10.96
68911;BMP180;55953;51.650;-0.522;2022-11-15T05:00:48;98996.80;;;11.00
68911;BMP180;55953;51.650;-0.522;2022-11-15T05:03:35;98984.60;;;11.00
68911;BMP180;55953;51.650;-0.522;2022-11-15T05:06:40;98990.20;;;11.06
68911;BMP180;55953;51.650;-0.522;2022-11-15T05:09:26;98987.80;;;11.10
68911;BMP180;55953;51.650;-0.522;2022-11-15T05:12:13;98986.60;;;11.10
68911;BMP180;55953;51.650;-0.522;2022-11-15T05:14:59;98992.80;;;11.10
68911;BMP180;55953;51.650;-0.522;2022-11-15T05:17:45;98984.00;;;11.10
68911;BMP180;55953;51.650;-0.522;2022-11-15T05:20:32;98983.60;;;11.20
68911;BMP180;55953;51.650;-0.522;2022-11-15T05:23:18;98974.60;;;11.20
68911;BMP180;55953;51.650;-0.522;2022-11-15T05:26:07;98969.00;;;11.20
68911;BMP180;55953;51.650;-0.522;2022-11-15T05:28:57;98962.00;;;11.24
68911;BMP180;55953;51.650;-0.522;2022-11-15T05:31:44;98956.20;;;11.30
68911;BMP180;55953;51.650;-0.522;2022-11-15T05:34:30;98950.60;;;11.30
68911;BMP180;55953;51.650;-0.522;2022-11-15T05:37:17;98944.00;;;11.36
68911;BMP180;55953;51.650;-0.522;2022-11-15T05:40:05;98940.00;;;11.40
68911;BMP180;55953;51.650;-0.522;2022-11-15T05:42:52;98929.00;;;11.50
68911;BMP180;55953;51.650;-0.522;2022-11-15T05:45:38;98927.20;;;11.50
68911;BMP180;55953;51.650;-0.522;2022-11-15T05:48:25;98912.40;;;11.50
68911;BMP180;55953;51.650;-0.522;2022-11-15T05:51:13;98913.00;;;11.50
68911;BMP180;55953;51.650;-0.522;2022-11-15T05:54:02;98907.60;;;11.50
68911;BMP180;55953;51.650;-0.522;2022-11-15T05:56:49;98905.60;;;11.50
68911;BMP180;55953;51.650;-0.522;2022-11-15T05:59:37;98902.00;;;11.50
68911;BMP180;55953;51.650;-0.522;2022-11-15T06:02:24;98895.40;;;11.50
68911;BMP180;55953;51.650;-0.522;2022-11-15T06:05:10;98894.40;;;11.56
68911;BMP180;55953;51.650;-0.522;2022-11-15T06:07:58;98894.40;;;11.60
68911;BMP180;55953;51.650;-0.522;2022-11-15T06:10:45;98885.80;;;11.60
68911;BMP180;55953;51.650;-0.522;2022-11-15T06:13:32;98882.80;;;11.64
68911;BMP180;55953;51.650;-0.522;2022-11-15T06:16:19;98880.60;;;11.70
68911;BMP180;55953;51.650;-0.522;2022-11-15T06:19:06;98880.00;;;11.70
68911;BMP180;55953;51.650;-0.522;2022-11-15T06:21:53;98868.20;;;11.62
68911;BMP180;55953;51.650;-0.522;2022-11-15T06:24:40;98869.20;;;11.70
68911;BMP180;55953;51.650;-0.522;2022-11-15T06:27:26;98868.80;;;11.70
68911;BMP180;55953;51.650;-0.522;2022-11-15T06:30:13;98864.60;;;11.70
68911;BMP180;55953;51.650;-0.522;2022-11-15T06:33:05;98867.20;;;11.74
68911;BMP180;55953;51.650;-0.522;2022-11-15T06:35:51;98863.20;;;11.70
68911;BMP180;55953;51.650;-0.522;2022-11-15T06:38:38;98859.00;;;11.78
68911;BMP180;55953;51.650;-0.522;2022-11-15T06:41:24;98850.60;;;11.80
68911;BMP180;55953;51.650;-0.522;2022-11-15T06:44:10;98852.60;;;11.80
68911;BMP180;55953;51.650;-0.522;2022-11-15T06:46:57;98845.00;;;11.80
68911;BMP180;55953;51.650;-0.522;2022-11-15T06:49:43;98841.20;;;11.80
68911;BMP180;55953;51.650;-0.522;2022-11-15T06:52:29;98845.20;;;11.80
68911;BMP180;55953;51.650;-0.522;2022-11-15T06:55:19;98837.80;;;11.80
68911;BMP180;55953;51.650;-0.522;2022-11-15T06:58:05;98836.00;;;11.80
68911;BMP180;55953;51.650;-0.522;2022-11-15T07:00:51;98834.40;;;11.80
68911;BMP180;55953;51.650;-0.522;2022-11-15T07:03:41;98829.60;;;11.80
68911;BMP180;55953;51.650;-0.522;2022-11-15T07:06:28;98821.60;;;11.80
68911;BMP180;55953;51.650;-0.522;2022-11-15T07:09:15;98818.60;;;11.80
68911;BMP180;55953;51.650;-0.522;2022-11-15T07:12:01;98816.80;;;11.80
68911;BMP180;55953;51.650;-0.522;2022-11-15T07:14:53;98815.80;;;11.80
68911;BMP180;55953;51.650;-0.522;2022-11-15T07:17:39;98810.40;;;11.80
68911;BMP180;55953;51.650;-0.522;2022-11-15T07:20:25;98806.40;;;11.80
68911;BMP180;55953;51.650;-0.522;2022-11-15T07:23:12;98801.80;;;11.80
68911;BMP180;55953;51.650;-0.522;2022-11-15T07:25:59;98802.00;;;11.80
68911;BMP180;55953;51.650;-0.522;2022-11-15T07:28:47;98805.60;;;11.80
68911;BMP180;55953;51.650;-0.522;2022-11-15T07:31:33;98801.80;;;11.80
68911;BMP180;55953;51.650;-0.522;2022-11-15T07:34:19;98792.00;;;11.80
68911;BMP180;55953;51.650;-0.522;2022-11-15T07:37:06;98794.00;;;11.80
68911;BMP180;55953;51.650;-0.522;2022-11-15T07:39:52;98793.00;;;11.80
68911;BMP180;55953;51.650;-0.522;2022-11-15T07:42:38;98790.40;;;11.80
68911;BMP180;55953;51.650;-0.522;2022-11-15T07:45:45;98784.40;;;11.80
68911;BMP180;55953;51.650;-0.522;2022-11-15T07:48:31;98782.40;;;11.80
68911;BMP180;55953;51.650;-0.522;2022-11-15T07:51:29;98778.60;;;11.80
68911;BMP180;55953;51.650;-0.522;2022-11-15T07:54:16;98770.80;;;11.80
68911;BMP180;55953;51.650;-0.522;2022-11-15T07:57:03;98765.80;;;11.86
68911;BMP180;55953;51.650;-0.522;2022-11-15T07:59:53;98763.00;;;11.90
68911;BMP180;55953;51.650;-0.522;2022-11-15T08:02:40;98760.00;;;11.88
68911;BMP180;55953;51.650;-0.522;2022-11-15T08:05:27;98750.00;;;11.90
68911;BMP180;55953;51.650;-0.522;2022-11-15T08:08:13;98748.60;;;11.90
68911;BMP180;55953;51.650;-0.522;2022-11-15T08:11:00;98747.80;;;11.90
68911;BMP180;55953;51.650;-0.522;2022-11-15T08:13:47;98745.00;;;11.90
68911;BMP180;55953;51.650;-0.522;2022-11-15T08:16:33;98744.20;;;11.90
68911;BMP180;55953;51.650;-0.522;2022-11-15T08:19:19;98740.60;;;11.90
68911;BMP180;55953;51.650;-0.522;2022-11-15T08:22:07;98738.20;;;11.92
68911;BMP180;55953;51.650;-0.522;2022-11-15T08:24:54;98734.40;;;12.00
68911;BMP180;55953;51.650;-0.522;2022-11-15T08:27:40;98732.40;;;12.00
68911;BMP180;55953;51.650;-0.522;2022-11-15T08:30:27;98733.60;;;12.00
68911;BMP180;55953;51.650;-0.522;2022-11-15T08:33:14;98728.60;;;12.00
68911;BMP180;55953;51.650;-0.522;2022-11-15T08:36:00;98723.00;;;12.00
68911;BMP180;55953;51.650;-0.522;2022-11-15T08:38:47;98718.60;;;12.00
68911;BMP180;55953;51.650;-0.522;2022-11-15T08:41:37;98723.40;;;12.02
68911;BMP180;55953;51.650;-0.522;2022-11-15T08:44:23;98721.80;;;12.10
68911;BMP180;55953;51.650;-0.522;2022-11-15T08:47:11;98719.00;;;12.10
68911;BMP180;55953;51.650;-0.522;2022-11-15T08:49:59;98715.60;;;12.10
68911;BMP180;55953;51.650;-0.522;2022-11-15T08:52:45;98705.00;;;12.10
68911;BMP180;55953;51.650;-0.522;2022-11-15T08:55:40;98696.40;;;12.10
68911;BMP180;55953;51.650;-0.522;2022-11-15T08:58:27;98690.80;;;12.12
68911;BMP180;55953;51.650;-0.522;2022-11-15T09:01:17;98684.20;;;12.20
68911;BMP180;55953;51.650;-0.522;2022-11-15T09:04:04;98683.60;;;12.20
68911;BMP180;55953;51.650;-0.522;2022-11-15T09:06:51;98677.40;;;12.20
68911;BMP180;55953;51.650;-0.522;2022-11-15T09:09:38;98670.80;;;12.20
68911;BMP180;55953;51.650;-0.522;2022-11-15T09:12:25;98665.80;;;12.20
68911;BMP180;55953;51.650;-0.522;2022-11-15T09:15:12;98659.20;;;12.20
68911;BMP180;55953;51.650;-0.522;2022-11-15T09:17:59;98659.40;;;12.20
68911;BMP180;55953;51.650;-0.522;2022-11-15T09:20:45;98647.80;;;12.28
68911;BMP180;55953;51.650;-0.522;2022-11-15T09:23:32;98648.00;;;12.22
68911;BMP180;55953;51.650;-0.522;2022-11-15T09:26:18;98641.40;;;12.22
68911;BMP180;55953;51.650;-0.522;2022-11-15T09:29:05;98629.40;;;12.26
68911;BMP180;55953;51.650;-0.522;2022-11-15T09:31:54;98633.60;;;12.30
68911;BMP180;55953;51.650;-0.522;2022-11-15T09:34:40;98627.20;;;12.30
68911;BMP180;55953;51.650;-0.522;2022-11-15T09:37:27;98623.20;;;12.30
68911;BMP180;55953;51.650;-0.522;2022-11-15T09:40:16;98614.60;;;12.30
68911;BMP180;55953;51.650;-0.522;2022-11-15T09:49:04;98601.60;;;12.40
68911;BMP180;55953;51.650;-0.522;2022-11-15T09:51:54;98601.20;;;12.40
68911;BMP180;55953;51.650;-0.522;2022-11-15T09:57:38;98597.00;;;12.50
68911;BMP180;55953;51.650;-0.522;2022-11-15T10:00:19;98587.60;;;12.50
68911;BMP180;55953;51.650;-0.522;2022-11-15T10:03:37;98584.40;;;12.50
68911;BMP180;55953;51.650;-0.522;2022-11-15T10:06:17;98586.20;;;12.54
68911;BMP180;55953;51.650;-0.522;2022-11-15T10:11:49;98581.60;;;12.60
68911;BMP180;55953;51.650;-0.522;2022-11-15T10:14:22;98562.40;;;12.60
68911;BMP180;55953;51.650;-0.522;2022-11-15T10:23:01;98545.60;;;12.70
68911;BMP180;55953;51.650;-0.522;2022-11-15T10:25:32;98542.00;;;12.70
68911;BMP180;55953;51.650;-0.522;2022-11-15T10:28:36;98538.80;;;12.70
68911;BMP180;55953;51.650;-0.522;2022-11-15T10:31:23;98533.60;;;12.70
68911;BMP180;55953;51.650;-0.522;2022-11-15T10:37:00;98512.00;;;12.70
68911;BMP180;55953;51.650;-0.522;2022-11-15T10:39:31;98498.20;;;12.70
68911;BMP180;55953;51.650;-0.522;2022-11-15T10:42:28;98491.00;;;12.70
68911;BMP180;55953;51.650;-0.522;2022-11-15T10:44:56;98487.60;;;12.70
68911;BMP180;55953;51.650;-0.522;2022-11-15T10:47:31;98481.20;;;12.70
68911;BMP180;55953;51.650;-0.522;2022-11-15T10:50:30;98477.00;;;12.70
68911;BMP180;55953;51.650;-0.522;2022-11-15T10:53:00;98465.40;;;12.70
68911;BMP180;55953;51.650;-0.522;2022-11-15T10:55:33;98459.20;;;12.70
68911;BMP180;55953;51.650;-0.522;2022-11-15T10:58:21;98456.80;;;12.70
68911;BMP180;55953;51.650;-0.522;2022-11-15T11:00:53;98453.40;;;12.70
68911;BMP180;55953;51.650;-0.522;2022-11-15T11:03:29;98452.00;;;12.70
68911;BMP180;55953;51.650;-0.522;2022-11-15T11:06:17;98452.00;;;12.70
68911;BMP180;55953;51.650;-0.522;2022-11-15T11:08:57;98448.40;;;12.72
68911;BMP180;55953;51.650;-0.522;2022-11-15T11:11:45;98452.80;;;12.80
68911;BMP180;55953;51.650;-0.522;2022-11-15T11:14:24;98445.40;;;12.80
68911;BMP180;55953;51.650;-0.522;2022-11-15T11:17:36;98436.40;;;12.80
68911;BMP180;55953;51.650;-0.522;2022-11-15T11:23:38;98424.80;;;12.70
68911;BMP180;55953;51.650;-0.522;2022-11-15T11:35:32;98412.40;;;12.70
68911;BMP180;55953;51.650;-0.522;2022-11-15T11:38:34;98400.20;;;12.70
68911;BMP180;55953;51.650;-0.522;2022-11-15T11:42:03;98396.80;;;12.70
68911;BMP180;55953;51.650;-0.522;2022-11-15T11:44:24;98394.20;;;12.70
68911;BMP180;55953;51.650;-0.522;2022-11-15T11:47:01;98380.20;;;12.70
68911;BMP180;55953;51.650;-0.522;2022-11-15T11:49:50;98380.40;;;12.70
68911;BMP180;55953;51.650;-0.522;2022-11-15T11:57:49;98345.60;;;12.70
68911;BMP180;55953;51.650;-0.522;2022-11-15T12:00:23;98348.20;;;12.74
68911;BMP180;55953;51.650;-0.522;2022-11-15T12:03:30;98341.60;;;12.70
68911;BMP180;55953;51.650;-0.522;2022-11-15T12:06:29;98331.40;;;12.70
68911;BMP180;55953;51.650;-0.522;2022-11-15T12:09:14;98328.00;;;12.70
68911;BMP180;55953;51.650;-0.522;2022-11-15T12:12:06;98323.20;;;12.76
68911;BMP180;55953;51.650;-0.522;2022-11-15T12:15:04;98319.80;;;12.80
68911;BMP180;55953;51.650;-0.522;2022-11-15T12:17:40;98308.40;;;12.76
68911;BMP180;55953;51.650;-0.522;2022-11-15T12:20:21;98306.60;;;12.80
68911;BMP180;55953;51.650;-0.522;2022-11-15T12:23:00;98301.00;;;12.74
68911;BMP180;55953;51.650;-0.522;2022-11-15T12:31:22;98291.80;;;12.80
68911;BMP180;55953;51.650;-0.522;2022-11-15T12:33:56;98289.80;;;12.80
68911;BMP180;55953;51.650;-0.522;2022-11-15T12:36:38;98286.60;;;12.80
68911;BMP180;55953;51.650;-0.522;2022-11-15T12:39:14;98279.80;;;12.80
68911;BMP180;55953;51.650;-0.522;2022-11-15T12:47:25;98261.00;;;12.90
68911;BMP180;55953;51.650;-0.522;2022-11-15T12:49:53;98260.00;;;12.90
68911;BMP180;55953;51.650;-0.522;2022-11-15T12:52:21;98259.00;;;13.00
68911;BMP180;55953;51.650;-0.522;2022-11-15T12:54:54;98246.40;;;13.00
68911;BMP180;55953;51.650;-0.522;2022-11-15T12:57:30;98247.60;;;13.02
68911;BMP180;55953;51.650;-0.522;2022-11-15T13:00:04;98242.40;;;13.10
68911;BMP180;55953;51.650;-0.522;2022-11-15T13:02:40;98244.20;;;13.10
68911;BMP180;55953;51.650;-0.522;2022-11-15T13:08:03;98256.20;;;13.20
68911;BMP180;55953;51.650;-0.522;2022-11-15T13:10:33;98241.60;;;13.20
68911;BMP180;55953;51.650;-0.522;2022-11-15T13:13:08;98227.20;;;13.40
68911;BMP180;55953;51.650;-0.522;2022-11-15T13:15:55;98225.40;;;13.60
68911;BMP180;55953;51.650;-0.522;2022-11-15T13:18:30;98227.20;;;13.92
68911;BMP180;55953;51.650;-0.522;2022-11-15T13:21:00;98228.00;;;14.20
68911;BMP180;55953;51.650;-0.522;2022-11-15T13:23:30;98228.20;;;14.50
68911;BMP180;55953;51.650;-0.522;2022-11-15T13:26:10;98231.40;;;14.68
68911;BMP180;55953;51.650;-0.522;2022-11-15T13:28:44;98236.60;;;14.80
68911;BMP180;55953;51.650;-0.522;2022-11-15T13:31:23;98240.00;;;14.80
68911;BMP180;55953;51.650;-0.522;2022-11-15T13:33:56;98241.60;;;14.90
68911;BMP180;55953;51.650;-0.522;2022-11-15T13:36:28;98243.00;;;14.90
68911;BMP180;55953;51.650;-0.522;2022-11-15T13:39:13;98244.20;;;14.90
68911;BMP180;55953;51.650;-0.522;2022-11-15T13:41:49;98247.20;;;14.90
68911;BMP180;55953;51.650;-0.522;2022-11-15T13:44:24;98244.00;;;14.80
68911;BMP180;55953;51.650;-0.522;2022-11-15T13:47:15;98249.40;;;14.74
68911;BMP180;55953;51.650;-0.522;2022-11-15T13:49:43;98250.00;;;14.70
68911;BMP180;55953;51.650;-0.522;2022-11-15T13:52:14;98253.40;;;14.60
68911;BMP180;55953;51.650;-0.522;2022-11-15T13:54:55;98250.80;;;14.60
68911;BMP180;55953;51.650;-0.522;2022-11-15T13:57:38;98254.60;;;14.50
68911;BMP180;55953;51.650;-0.522;2022-11-15T14:05:36;98257.00;;;14.36
68911;BMP180;55953;51.650;-0.522;2022-11-15T14:08:23;98259.60;;;14.40
68911;BMP180;55953;51.650;-0.522;2022-11-15T14:11:16;98266.20;;;14.40
68911;BMP180;55953;51.650;-0.522;2022-11-15T14:14:13;98269.80;;;14.30
68911;BMP180;55953;51.650;-0.522;2022-11-15T14:16:46;98268.60;;;14.22
68911;BMP180;55953;51.650;-0.522;2022-11-15T14:22:23;98276.40;;;13.98
68911;BMP180;55953;51.650;-0.522;2022-11-15T14:25:20;98274.00;;;13.90
68911;BMP180;55953;51.650;-0.522;2022-11-15T14:30:55;98291.20;;;13.60
68911;BMP180;55953;51.650;-0.522;2022-11-15T14:36:12;98295.40;;;13.50
68911;BMP180;55953;51.650;-0.522;2022-11-15T14:38:41;98286.00;;;13.50
68911;BMP180;55953;51.650;-0.522;2022-11-15T14:41:25;98294.60;;;13.40
68911;BMP180;55953;51.650;-0.522;2022-11-15T14:43:54;98298.40;;;13.30
68911;BMP180;55953;51.650;-0.522;2022-11-15T14:46:21;98299.60;;;13.20
68911;BMP180;55953;51.650;-0.522;2022-11-15T14:48:49;98299.40;;;13.10
68911;BMP180;55953;51.650;-0.522;2022-11-15T14:51:18;98298.20;;;13.00
68911;BMP180;55953;51.650;-0.522;2022-11-15T14:53:47;98305.20;;;12.90
68911;BMP180;55953;51.650;-0.522;2022-11-15T14:56:15;98301.60;;;12.80
68911;BMP180;55953;51.650;-0.522;2022-11-15T14:58:43;98305.80;;;12.74
68911;BMP180;55953;51.650;-0.522;2022-11-15T15:01:23;98311.20;;;12.70
68911;BMP180;55953;51.650;-0.522;2022-11-15T15:03:52;98315.40;;;12.70
68911;BMP180;55953;51.650;-0.522;2022-11-15T15:06:23;98316.80;;;12.70
68911;BMP180;55953;51.650;-0.522;2022-11-15T15:08:51;98323.60;;;12.70
68911;BMP180;55953;51.650;-0.522;2022-11-15T15:11:26;98331.40;;;12.60
68911;BMP180;55953;51.650;-0.522;2022-11-15T15:13:55;98325.80;;;12.56
68911;BMP180;55953;51.650;-0.522;2022-11-15T15:16:24;98328.20;;;12.50
68911;BMP180;55953;51.650;-0.522;2022-11-15T15:18:52;98325.80;;;12.40
68911;BMP180;55953;51.650;-0.522;2022-11-15T15:21:24;98321.60;;;12.40
68911;BMP180;55953;51.650;-0.522;2022-11-15T15:23:52;98322.00;;;12.30
68911;BMP180;55953;51.650;-0.522;2022-11-15T15:26:23;98326.20;;;12.30
68911;BMP180;55953;51.650;-0.522;2022-11-15T15:28:51;98328.60;;;12.30
68911;BMP180;55953;51.650;-0.522;2022-11-15T15:31:19;98331.00;;;12.20
68911;BMP180;55953;51.650;-0.522;2022-11-15T15:33:48;98327.20;;;12.18
68911;BMP180;55953;51.650;-0.522;2022-11-15T15:36:18;98332.40;;;12.10
68911;BMP180;55953;51.650;-0.522;2022-11-15T15:38:46;98335.40;;;12.08
68911;BMP180;55953;51.650;-0.522;2022-11-15T15:41:16;98335.60;;;12.00
68911;BMP180;55953;51.650;-0.522;2022-11-15T15:43:44;98332.40;;;12.00
68911;BMP180;55953;51.650;-0.522;2022-11-15T15:46:16;98328.80;;;11.90
68911;BMP180;55953;51.650;-0.522;2022-11-15T15:48:45;98331.20;;;11.90
68911;BMP180;55953;51.650;-0.522;2022-11-15T15:51:14;98331.80;;;11.80
68911;BMP180;55953;51.650;-0.522;2022-11-15T15:53:48;98333.00;;;11.80
68911;BMP180;55953;51.650;-0.522;2022-11-15T15:56:15;98336.20;;;11.70
68911;BMP180;55953;51.650;-0.522;2022-11-15T15:58:43;98338.80;;;11.70
68911;BMP180;55953;51.650;-0.522;2022-11-15T16:01:11;98331.00;;;11.60
68911;BMP180;55953;51.650;-0.522;2022-11-15T16:03:39;98337.80;;;11.50
68911;BMP180;55953;51.650;-0.522;2022-11-15T16:06:37;98340.40;;;11.50
68911;BMP180;55953;51.650;-0.522;2022-11-15T16:09:12;98343.20;;;11.60
68911;BMP180;55953;51.650;-0.522;2022-11-15T16:11:45;98342.80;;;11.50
68911;BMP180;55953;51.650;-0.522;2022-11-15T16:14:13;98347.40;;;11.50
68911;BMP180;55953;51.650;-0.522;2022-11-15T16:16:41;98345.60;;;11.40
68911;BMP180;55953;51.650;-0.522;2022-11-15T16:19:10;98348.60;;;11.48
68911;BMP180;55953;51.650;-0.522;2022-11-15T16:21:39;98347.80;;;11.50
68911;BMP180;55953;51.650;-0.522;2022-11-15T16:24:07;98340.60;;;11.50
68911;BMP180;55953;51.650;-0.522;2022-11-15T16:26:35;98343.40;;;11.50
68911;BMP180;55953;51.650;-0.522;2022-11-15T16:29:04;98347.20;;;11.56
68911;BMP180;55953;51.650;-0.522;2022-11-15T16:31:34;98344.80;;;11.60
68911;BMP180;55953;51.650;-0.522;2022-11-15T16:34:02;98340.60;;;11.60
68911;BMP180;55953;51.650;-0.522;2022-11-15T16:36:33;98343.60;;;11.70
68911;BMP180;55953;51.650;-0.522;2022-11-15T16:39:02;98348.40;;;11.70
68911;BMP180;55953;51.650;-0.522;2022-11-15T16:41:32;98345.80;;;11.70
68911;BMP180;55953;51.650;-0.522;2022-11-15T16:44:00;98359.80;;;11.70
68911;BMP180;55953;51.650;-0.522;2022-11-15T16:46:27;98359.00;;;11.66
68911;BMP180;55953;51.650;-0.522;2022-11-15T16:48:56;98366.80;;;11.70
68911;BMP180;55953;51.650;-0.522;2022-11-15T16:51:25;98371.40;;;11.70
68911;BMP180;55953;51.650;-0.522;2022-11-15T16:53:52;98377.60;;;11.70
68911;BMP180;55953;51.650;-0.522;2022-11-15T16:56:29;98372.20;;;11.70
68911;BMP180;55953;51.650;-0.522;2022-11-15T16:58:59;98377.20;;;11.70
68911;BMP180;55953;51.650;-0.522;2022-11-15T17:01:31;98367.80;;;11.70
68911;BMP180;55953;51.650;-0.522;2022-11-15T17:04:01;98363.00;;;11.60
68911;BMP180;55953;51.650;-0.522;2022-11-15T17:06:45;98362.20;;;11.60